sensor_id;sensor_type;location;lat;lon;timestamp;P1;durP1;ratioP1;P2;durP2;ratioP2
36457;SDS011;22480;50.546;12.292;2023-11-19T00:00:33;2.13;;;0.93;;
36457;SDS011;22480;50.546;12.292;2023-11-19T00:02:59;0.60;;;0.60;;
36457;SDS011;22480;50.546;12.292;2023-11-19T00:05:25;0.93;;;0.88;;
36457;SDS011;22480;50.546;12.292;2023-11-19T00:07:51;1.08;;;0.95;;
36457;SDS011;22480;50.546;12.292;2023-11-19T00:10:17;0.88;;;0.88;;
36457;SDS011;22480;50.546;12.292;2023-11-19T00:12:46;1.00;;;0.95;;
36457;SDS011;22480;50.546;12.292;2023-11-19T00:15:13;1.27;;;1.00;;
36457;SDS011;22480;50.546;12.292;2023-11-19T00:17:40;0.95;;;0.85;;
36457;SDS011;22480;50.546;12.292;2023-11-19T00:20:13;1.85;;;1.23;;
36457;SDS011;22480;50.546;12.292;2023-11-19T00:25:07;0.80;;;0.80;;
36457;SDS011;22480;50.546;12.292;2023-11-19T00:27:33;1.50;;;1.40;;
36457;SDS011;22480;50.546;12.292;2023-11-19T00:29:59;1.30;;;1.20;;
36457;SDS011;22480;50.546;12.292;2023-11-19T00:32:25;1.10;;;1.00;;
36457;SDS011;22480;50.546;12.292;2023-11-19T00:34:51;1.77;;;1.55;;
36457;SDS011;22480;50.546;12.292;2023-11-19T00:37:17;1.25;;;1.15;;
36457;SDS011;22480;50.546;12.292;2023-11-19T00:39:43;1.65;;;1.55;;
36457;SDS011;22480;50.546;12.292;2023-11-19T00:42:09;1.30;;;1.20;;
36457;SDS011;22480;50.546;12.292;2023-11-19T00:44:35;1.77;;;1.45;;
36457;SDS011;22480;50.546;12.292;2023-11-19T00:47:01;1.77;;;1.65;;
36457;SDS011;22480;50.546;12.292;2023-11-19T00:49:27;1.70;;;1.60;;
36457;SDS011;22480;50.546;12.292;2023-11-19T00:51:53;1.33;;;1.23;;
36457;SDS011;22480;50.546;12.292;2023-11-19T00:54:19;1.35;;;1.15;;
36457;SDS011;22480;50.546;12.292;2023-11-19T00:56:45;2.95;;;1.70;;
36457;SDS011;22480;50.546;12.292;2023-11-19T00:59:11;1.65;;;1.40;;
36457;SDS011;22480;50.546;12.292;2023-11-19T01:01:37;1.60;;;1.50;;
36457;SDS011;22480;50.546;12.292;2023-11-19T01:04:02;1.58;;;1.48;;
36457;SDS011;22480;50.546;12.292;2023-11-19T01:06:29;2.00;;;1.50;;
36457;SDS011;22480;50.546;12.292;2023-11-19T01:08:55;1.77;;;1.63;;
36457;SDS011;22480;50.546;12.292;2023-11-19T01:11:24;1.95;;;1.75;;
36457;SDS011;22480;50.546;12.292;2023-11-19T01:13:50;1.83;;;1.67;;
36457;SDS011;22480;50.546;12.292;2023-11-19T01:16:17;1.65;;;1.48;;
36457;SDS011;22480;50.546;12.292;2023-11-19T01:18:44;2.30;;;1.95;;
36457;SDS011;22480;50.546;12.292;2023-11-19T01:21:12;1.73;;;1.52;;
36457;SDS011;22480;50.546;12.292;2023-11-19T01:23:40;2.08;;;1.73;;
36457;SDS011;22480;50.546;12.292;2023-11-19T01:26:08;2.50;;;1.90;;
36457;SDS011;22480;50.546;12.292;2023-11-19T01:28:38;1.65;;;1.55;;
36457;SDS011;22480;50.546;12.292;2023-11-19T01:31:10;1.95;;;1.75;;
36457;SDS011;22480;50.546;12.292;2023-11-19T01:33:36;2.13;;;1.95;;
36457;SDS011;22480;50.546;12.292;2023-11-19T01:36:02;2.03;;;1.65;;
36457;SDS011;22480;50.546;12.292;2023-11-19T01:38:29;2.17;;;1.75;;
36457;SDS011;22480;50.546;12.292;2023-11-19T01:40:56;2.20;;;2.00;;
36457;SDS011;22480;50.546;12.292;2023-11-19T01:43:32;1.73;;;1.63;;
36457;SDS011;22480;50.546;12.292;2023-11-19T01:45:59;2.10;;;1.73;;
36457;SDS011;22480;50.546;12.292;2023-11-19T01:48:26;2.17;;;1.98;;
36457;SDS011;22480;50.546;12.292;2023-11-19T01:50:52;1.70;;;1.60;;
36457;SDS011;22480;50.546;12.292;2023-11-19T01:53:18;2.65;;;1.95;;
36457;SDS011;22480;50.546;12.292;2023-11-19T01:55:46;2.55;;;2.33;;
36457;SDS011;22480;50.546;12.292;2023-11-19T01:58:13;2.10;;;1.90;;
36457;SDS011;22480;50.546;12.292;2023-11-19T02:00:39;2.42;;;1.40;;
36457;SDS011;22480;50.546;12.292;2023-11-19T02:03:05;2.58;;;2.38;;
36457;SDS011;22480;50.546;12.292;2023-11-19T02:05:33;2.17;;;1.98;;
36457;SDS011;22480;50.546;12.292;2023-11-19T02:08:00;1.95;;;1.77;;
36457;SDS011;22480;50.546;12.292;2023-11-19T02:10:26;2.55;;;2.17;;
36457;SDS011;22480;50.546;12.292;2023-11-19T02:12:52;3.03;;;2.15;;
36457;SDS011;22480;50.546;12.292;2023-11-19T02:15:20;2.58;;;2.33;;
36457;SDS011;22480;50.546;12.292;2023-11-19T02:17:49;1.88;;;1.75;;
36457;SDS011;22480;50.546;12.292;2023-11-19T02:20:16;1.85;;;1.73;;
36457;SDS011;22480;50.546;12.292;2023-11-19T02:22:45;2.30;;;1.60;;
36457;SDS011;22480;50.546;12.292;2023-11-19T02:25:25;2.20;;;2.00;;
36457;SDS011;22480;50.546;12.292;2023-11-19T02:28:01;2.40;;;1.77;;
36457;SDS011;22480;50.546;12.292;2023-11-19T02:30:28;2.13;;;1.85;;
36457;SDS011;22480;50.546;12.292;2023-11-19T02:32:55;2.08;;;1.88;;
36457;SDS011;22480;50.546;12.292;2023-11-19T02:35:23;1.65;;;1.50;;
36457;SDS011;22480;50.546;12.292;2023-11-19T02:37:49;2.47;;;1.52;;
36457;SDS011;22480;50.546;12.292;2023-11-19T02:40:15;2.15;;;1.95;;
36457;SDS011;22480;50.546;12.292;2023-11-19T02:42:42;1.77;;;1.63;;
36457;SDS011;22480;50.546;12.292;2023-11-19T02:45:08;1.80;;;1.63;;
36457;SDS011;22480;50.546;12.292;2023-11-19T02:47:39;2.13;;;1.98;;
36457;SDS011;22480;50.546;12.292;2023-11-19T02:50:08;4.78;;;1.90;;
36457;SDS011;22480;50.546;12.292;2023-11-19T02:52:42;2.00;;;1.90;;
36457;SDS011;22480;50.546;12.292;2023-11-19T02:55:11;1.67;;;1.58;;
36457;SDS011;22480;50.546;12.292;2023-11-19T02:57:40;2.83;;;2.20;;
36457;SDS011;22480;50.546;12.292;2023-11-19T03:00:16;1.85;;;1.70;;
36457;SDS011;22480;50.546;12.292;2023-11-19T03:03:01;1.70;;;1.40;;
36457;SDS011;22480;50.546;12.292;2023-11-19T03:05:49;1.42;;;1.30;;
36457;SDS011;22480;50.546;12.292;2023-11-19T03:08:15;1.50;;;1.40;;
36457;SDS011;22480;50.546;12.292;2023-11-19T03:10:41;1.50;;;1.40;;
36457;SDS011;22480;50.546;12.292;2023-11-19T03:13:10;2.03;;;1.55;;
36457;SDS011;22480;50.546;12.292;2023-11-19T03:15:41;1.50;;;1.40;;
36457;SDS011;22480;50.546;12.292;2023-11-19T03:18:07;1.58;;;1.48;;
36457;SDS011;22480;50.546;12.292;2023-11-19T03:20:34;1.42;;;1.23;;
36457;SDS011;22480;50.546;12.292;2023-11-19T03:23:00;1.60;;;1.50;;
36457;SDS011;22480;50.546;12.292;2023-11-19T03:25:27;1.63;;;1.52;;
36457;SDS011;22480;50.546;12.292;2023-11-19T03:27:58;1.55;;;1.45;;
36457;SDS011;22480;50.546;12.292;2023-11-19T03:30:25;1.25;;;1.15;;
36457;SDS011;22480;50.546;12.292;2023-11-19T03:32:51;1.35;;;1.25;;
36457;SDS011;22480;50.546;12.292;2023-11-19T03:35:17;1.33;;;1.20;;
36457;SDS011;22480;50.546;12.292;2023-11-19T03:37:43;1.10;;;1.00;;
36457;SDS011;22480;50.546;12.292;2023-11-19T03:40:09;1.00;;;0.90;;
36457;SDS011;22480;50.546;12.292;2023-11-19T03:42:35;1.00;;;0.85;;
36457;SDS011;22480;50.546;12.292;2023-11-19T03:45:01;1.35;;;1.05;;
36457;SDS011;22480;50.546;12.292;2023-11-19T03:47:29;1.00;;;1.00;;
36457;SDS011;22480;50.546;12.292;2023-11-19T03:49:54;1.35;;;1.13;;
36457;SDS011;22480;50.546;12.292;2023-11-19T03:52:20;0.90;;;0.90;;
36457;SDS011;22480;50.546;12.292;2023-11-19T03:54:46;1.10;;;1.00;;
36457;SDS011;22480;50.546;12.292;2023-11-19T03:57:12;1.13;;;0.95;;
36457;SDS011;22480;50.546;12.292;2023-11-19T03:59:38;1.10;;;1.00;;
36457;SDS011;22480;50.546;12.292;2023-11-19T04:02:05;0.52;;;0.52;;
36457;SDS011;22480;50.546;12.292;2023-11-19T04:04:31;0.80;;;0.80;;
36457;SDS011;22480;50.546;12.292;2023-11-19T04:06:57;0.65;;;0.65;;
36457;SDS011;22480;50.546;12.292;2023-11-19T04:09:23;1.00;;;0.90;;
36457;SDS011;22480;50.546;12.292;2023-11-19T04:11:49;0.88;;;0.85;;
36457;SDS011;22480;50.546;12.292;2023-11-19T04:14:15;0.80;;;0.80;;
36457;SDS011;22480;50.546;12.292;2023-11-19T04:16:43;0.85;;;0.77;;
36457;SDS011;22480;50.546;12.292;2023-11-19T04:19:10;0.65;;;0.63;;
36457;SDS011;22480;50.546;12.292;2023-11-19T04:21:37;1.17;;;0.98;;
36457;SDS011;22480;50.546;12.292;2023-11-19T04:24:06;1.20;;;1.10;;
36457;SDS011;22480;50.546;12.292;2023-11-19T04:26:33;0.70;;;0.70;;
36457;SDS011;22480;50.546;12.292;2023-11-19T04:28:59;1.20;;;1.10;;
36457;SDS011;22480;50.546;12.292;2023-11-19T04:31:28;0.82;;;0.82;;
36457;SDS011;22480;50.546;12.292;2023-11-19T04:33:57;1.10;;;0.90;;
36457;SDS011;22480;50.546;12.292;2023-11-19T04:36:25;0.80;;;0.80;;
36457;SDS011;22480;50.546;12.292;2023-11-19T04:38:51;2.00;;;0.98;;
36457;SDS011;22480;50.546;12.292;2023-11-19T04:41:17;0.63;;;0.60;;
36457;SDS011;22480;50.546;12.292;2023-11-19T04:43:42;1.05;;;0.70;;
36457;SDS011;22480;50.546;12.292;2023-11-19T04:46:09;0.80;;;0.80;;
36457;SDS011;22480;50.546;12.292;2023-11-19T04:48:35;1.13;;;1.02;;
36457;SDS011;22480;50.546;12.292;2023-11-19T04:51:00;0.70;;;0.70;;
36457;SDS011;22480;50.546;12.292;2023-11-19T04:53:29;0.60;;;0.60;;
36457;SDS011;22480;50.546;12.292;2023-11-19T04:55:55;1.15;;;0.60;;
36457;SDS011;22480;50.546;12.292;2023-11-19T04:58:20;0.80;;;0.80;;
36457;SDS011;22480;50.546;12.292;2023-11-19T05:00:46;1.33;;;0.85;;
36457;SDS011;22480;50.546;12.292;2023-11-19T05:03:12;1.17;;;0.85;;
36457;SDS011;22480;50.546;12.292;2023-11-19T05:05:38;0.90;;;0.85;;
36457;SDS011;22480;50.546;12.292;2023-11-19T05:08:03;1.80;;;0.80;;
36457;SDS011;22480;50.546;12.292;2023-11-19T05:10:30;0.80;;;0.80;;
36457;SDS011;22480;50.546;12.292;2023-11-19T05:12:56;0.82;;;0.82;;
36457;SDS011;22480;50.546;12.292;2023-11-19T05:15:21;0.90;;;0.82;;
36457;SDS011;22480;50.546;12.292;2023-11-19T05:17:47;0.93;;;0.88;;
36457;SDS011;22480;50.546;12.292;2023-11-19T05:20:13;0.80;;;0.80;;
36457;SDS011;22480;50.546;12.292;2023-11-19T05:22:42;0.82;;;0.82;;
36457;SDS011;22480;50.546;12.292;2023-11-19T05:25:08;1.55;;;1.23;;
36457;SDS011;22480;50.546;12.292;2023-11-19T05:27:35;0.77;;;0.77;;
36457;SDS011;22480;50.546;12.292;2023-11-19T05:30:02;1.13;;;1.02;;
36457;SDS011;22480;50.546;12.292;2023-11-19T05:32:31;0.80;;;0.80;;
36457;SDS011;22480;50.546;12.292;2023-11-19T05:34:57;0.70;;;0.70;;
36457;SDS011;22480;50.546;12.292;2023-11-19T05:37:23;0.77;;;0.70;;
36457;SDS011;22480;50.546;12.292;2023-11-19T05:39:48;0.60;;;0.60;;
36457;SDS011;22480;50.546;12.292;2023-11-19T05:42:14;0.75;;;0.75;;
36457;SDS011;22480;50.546;12.292;2023-11-19T05:44:40;0.70;;;0.70;;
36457;SDS011;22480;50.546;12.292;2023-11-19T05:47:06;0.98;;;0.85;;
36457;SDS011;22480;50.546;12.292;2023-11-19T05:49:32;0.70;;;0.70;;
36457;SDS011;22480;50.546;12.292;2023-11-19T05:51:58;0.88;;;0.70;;
36457;SDS011;22480;50.546;12.292;2023-11-19T05:54:24;0.63;;;0.63;;
36457;SDS011;22480;50.546;12.292;2023-11-19T05:56:50;0.77;;;0.77;;
36457;SDS011;22480;50.546;12.292;2023-11-19T05:59:19;1.20;;;0.90;;
36457;SDS011;22480;50.546;12.292;2023-11-19T06:01:45;2.00;;;1.75;;
36457;SDS011;22480;50.546;12.292;2023-11-19T06:04:11;1.58;;;0.98;;
36457;SDS011;22480;50.546;12.292;2023-11-19T06:06:37;0.70;;;0.70;;
36457;SDS011;22480;50.546;12.292;2023-11-19T06:09:04;0.82;;;0.57;;
36457;SDS011;22480;50.546;12.292;2023-11-19T06:11:30;0.50;;;0.50;;
36457;SDS011;22480;50.546;12.292;2023-11-19T06:13:56;1.08;;;0.90;;
36457;SDS011;22480;50.546;12.292;2023-11-19T06:16:22;0.68;;;0.68;;
36457;SDS011;22480;50.546;12.292;2023-11-19T06:18:48;1.02;;;0.80;;
36457;SDS011;22480;50.546;12.292;2023-11-19T06:21:14;0.85;;;0.85;;
36457;SDS011;22480;50.546;12.292;2023-11-19T06:23:39;5.10;;;0.82;;
36457;SDS011;22480;50.546;12.292;2023-11-19T06:26:05;0.98;;;0.88;;
36457;SDS011;22480;50.546;12.292;2023-11-19T06:28:31;1.10;;;1.00;;
36457;SDS011;22480;50.546;12.292;2023-11-19T06:30:57;1.10;;;1.00;;
36457;SDS011;22480;50.546;12.292;2023-11-19T06:33:23;1.17;;;1.08;;
36457;SDS011;22480;50.546;12.292;2023-11-19T06:35:49;1.00;;;0.90;;
36457;SDS011;22480;50.546;12.292;2023-11-19T06:38:15;2.33;;;1.50;;
36457;SDS011;22480;50.546;12.292;2023-11-19T06:40:41;1.30;;;1.20;;
36457;SDS011;22480;50.546;12.292;2023-11-19T06:43:07;1.48;;;1.35;;
36457;SDS011;22480;50.546;12.292;2023-11-19T06:45:34;1.38;;;1.27;;
36457;SDS011;22480;50.546;12.292;2023-11-19T06:48:02;1.75;;;1.60;;
36457;SDS011;22480;50.546;12.292;2023-11-19T06:50:31;2.05;;;1.73;;
36457;SDS011;22480;50.546;12.292;2023-11-19T06:52:57;1.42;;;1.30;;
36457;SDS011;22480;50.546;12.292;2023-11-19T06:55:23;1.90;;;1.70;;
36457;SDS011;22480;50.546;12.292;2023-11-19T06:57:49;1.65;;;1.55;;
36457;SDS011;22480;50.546;12.292;2023-11-19T07:00:14;2.03;;;1.75;;
36457;SDS011;22480;50.546;12.292;2023-11-19T07:02:40;2.53;;;1.90;;
36457;SDS011;22480;50.546;12.292;2023-11-19T07:05:07;2.10;;;1.70;;
36457;SDS011;22480;50.546;12.292;2023-11-19T07:07:33;1.88;;;1.52;;
36457;SDS011;22480;50.546;12.292;2023-11-19T07:10:00;1.83;;;1.67;;
36457;SDS011;22480;50.546;12.292;2023-11-19T07:12:27;1.52;;;1.35;;
36457;SDS011;22480;50.546;12.292;2023-11-19T07:14:53;2.47;;;1.70;;
36457;SDS011;22480;50.546;12.292;2023-11-19T07:17:20;3.33;;;1.70;;
36457;SDS011;22480;50.546;12.292;2023-11-19T07:19:46;1.85;;;1.52;;
36457;SDS011;22480;50.546;12.292;2023-11-19T07:22:15;1.17;;;1.08;;
36457;SDS011;22480;50.546;12.292;2023-11-19T07:24:41;2.05;;;1.35;;
36457;SDS011;22480;50.546;12.292;2023-11-19T07:27:08;1.02;;;0.93;;
36457;SDS011;22480;50.546;12.292;2023-11-19T07:29:34;1.02;;;0.90;;
36457;SDS011;22480;50.546;12.292;2023-11-19T07:32:01;1.48;;;1.10;;
36457;SDS011;22480;50.546;12.292;2023-11-19T07:34:30;2.65;;;1.30;;
36457;SDS011;22480;50.546;12.292;2023-11-19T07:36:56;1.50;;;1.23;;
36457;SDS011;22480;50.546;12.292;2023-11-19T07:39:27;2.05;;;0.98;;
36457;SDS011;22480;50.546;12.292;2023-11-19T07:41:56;1.55;;;0.98;;
36457;SDS011;22480;50.546;12.292;2023-11-19T07:44:21;2.45;;;1.25;;
36457;SDS011;22480;50.546;12.292;2023-11-19T07:46:47;1.75;;;1.23;;
36457;SDS011;22480;50.546;12.292;2023-11-19T07:49:13;1.52;;;0.80;;
36457;SDS011;22480;50.546;12.292;2023-11-19T07:51:39;1.10;;;1.00;;
36457;SDS011;22480;50.546;12.292;2023-11-19T07:54:05;0.98;;;0.90;;
36457;SDS011;22480;50.546;12.292;2023-11-19T07:56:34;1.02;;;0.93;;
36457;SDS011;22480;50.546;12.292;2023-11-19T07:59:01;0.80;;;0.80;;
36457;SDS011;22480;50.546;12.292;2023-11-19T08:01:29;1.17;;;0.90;;
36457;SDS011;22480;50.546;12.292;2023-11-19T08:03:55;1.10;;;1.00;;
36457;SDS011;22480;50.546;12.292;2023-11-19T08:06:21;0.90;;;0.70;;
36457;SDS011;22480;50.546;12.292;2023-11-19T08:08:47;0.60;;;0.60;;
36457;SDS011;22480;50.546;12.292;2023-11-19T08:11:13;1.13;;;0.82;;
36457;SDS011;22480;50.546;12.292;2023-11-19T08:13:40;2.28;;;1.00;;
36457;SDS011;22480;50.546;12.292;2023-11-19T08:16:07;0.68;;;0.68;;
36457;SDS011;22480;50.546;12.292;2023-11-19T08:18:32;1.17;;;0.80;;
36457;SDS011;22480;50.546;12.292;2023-11-19T08:20:58;1.88;;;0.82;;
36457;SDS011;22480;50.546;12.292;2023-11-19T08:23:25;2.40;;;1.02;;
36457;SDS011;22480;50.546;12.292;2023-11-19T08:25:53;1.90;;;1.10;;
36457;SDS011;22480;50.546;12.292;2023-11-19T08:28:19;1.05;;;0.90;;
36457;SDS011;22480;50.546;12.292;2023-11-19T08:30:45;0.82;;;0.82;;
36457;SDS011;22480;50.546;12.292;2023-11-19T08:33:11;1.85;;;1.35;;
36457;SDS011;22480;50.546;12.292;2023-11-19T08:35:36;1.90;;;1.27;;
36457;SDS011;22480;50.546;12.292;2023-11-19T08:38:02;1.63;;;1.52;;
36457;SDS011;22480;50.546;12.292;2023-11-19T08:40:28;2.28;;;1.63;;
36457;SDS011;22480;50.546;12.292;2023-11-19T08:42:55;1.00;;;0.95;;
36457;SDS011;22480;50.546;12.292;2023-11-19T08:45:21;1.38;;;1.02;;
36457;SDS011;22480;50.546;12.292;2023-11-19T08:47:47;1.13;;;1.02;;
36457;SDS011;22480;50.546;12.292;2023-11-19T08:50:13;1.30;;;1.20;;
36457;SDS011;22480;50.546;12.292;2023-11-19T08:52:38;2.47;;;1.67;;
36457;SDS011;22480;50.546;12.292;2023-11-19T08:55:04;4.53;;;1.77;;
36457;SDS011;22480;50.546;12.292;2023-11-19T08:57:31;1.75;;;1.63;;
36457;SDS011;22480;50.546;12.292;2023-11-19T08:59:57;2.05;;;1.45;;
36457;SDS011;22480;50.546;12.292;2023-11-19T09:02:24;1.45;;;1.30;;
36457;SDS011;22480;50.546;12.292;2023-11-19T09:04:50;3.83;;;2.92;;
36457;SDS011;22480;50.546;12.292;2023-11-19T09:07:16;3.03;;;2.50;;
36457;SDS011;22480;50.546;12.292;2023-11-19T09:09:41;2.63;;;2.03;;
36457;SDS011;22480;50.546;12.292;2023-11-19T09:12:07;1.50;;;1.40;;
36457;SDS011;22480;50.546;12.292;2023-11-19T09:14:33;1.60;;;1.50;;
36457;SDS011;22480;50.546;12.292;2023-11-19T09:16:59;2.08;;;1.70;;
36457;SDS011;22480;50.546;12.292;2023-11-19T09:19:25;2.25;;;1.50;;
36457;SDS011;22480;50.546;12.292;2023-11-19T09:21:51;2.47;;;1.83;;
36457;SDS011;22480;50.546;12.292;2023-11-19T09:24:18;2.58;;;1.50;;
36457;SDS011;22480;50.546;12.292;2023-11-19T09:26:43;1.88;;;1.65;;
36457;SDS011;22480;50.546;12.292;2023-11-19T09:29:09;1.48;;;1.10;;
36457;SDS011;22480;50.546;12.292;2023-11-19T09:31:37;1.35;;;1.00;;
36457;SDS011;22480;50.546;12.292;2023-11-19T09:34:04;1.52;;;1.00;;
36457;SDS011;22480;50.546;12.292;2023-11-19T09:36:30;1.30;;;0.88;;
36457;SDS011;22480;50.546;12.292;2023-11-19T09:38:56;0.85;;;0.60;;
36457;SDS011;22480;50.546;12.292;2023-11-19T09:41:22;3.53;;;1.20;;
36457;SDS011;22480;50.546;12.292;2023-11-19T09:43:49;1.98;;;1.10;;
36457;SDS011;22480;50.546;12.292;2023-11-19T09:46:16;1.23;;;1.00;;
36457;SDS011;22480;50.546;12.292;2023-11-19T09:48:42;2.33;;;0.70;;
36457;SDS011;22480;50.546;12.292;2023-11-19T09:51:10;2.33;;;1.27;;
36457;SDS011;22480;50.546;12.292;2023-11-19T09:53:36;0.90;;;0.70;;
36457;SDS011;22480;50.546;12.292;2023-11-19T09:56:06;1.73;;;0.70;;
36457;SDS011;22480;50.546;12.292;2023-11-19T09:58:35;2.85;;;0.80;;
36457;SDS011;22480;50.546;12.292;2023-11-19T10:01:01;2.45;;;0.77;;
36457;SDS011;22480;50.546;12.292;2023-11-19T10:03:35;2.22;;;0.90;;
36457;SDS011;22480;50.546;12.292;2023-11-19T10:06:03;2.40;;;0.90;;
36457;SDS011;22480;50.546;12.292;2023-11-19T10:08:31;1.48;;;0.90;;
36457;SDS011;22480;50.546;12.292;2023-11-19T10:10:57;2.05;;;1.02;;
36457;SDS011;22480;50.546;12.292;2023-11-19T10:13:30;2.88;;;1.20;;
36457;SDS011;22480;50.546;12.292;2023-11-19T10:15:56;4.65;;;1.20;;
36457;SDS011;22480;50.546;12.292;2023-11-19T10:18:25;2.45;;;1.20;;
36457;SDS011;22480;50.546;12.292;2023-11-19T10:20:52;5.72;;;1.27;;
36457;SDS011;22480;50.546;12.292;2023-11-19T10:23:18;2.55;;;1.02;;
36457;SDS011;22480;50.546;12.292;2023-11-19T10:25:44;2.70;;;1.05;;
36457;SDS011;22480;50.546;12.292;2023-11-19T10:28:10;3.80;;;1.25;;
36457;SDS011;22480;50.546;12.292;2023-11-19T10:30:36;2.35;;;1.10;;
36457;SDS011;22480;50.546;12.292;2023-11-19T10:33:06;2.97;;;1.02;;
36457;SDS011;22480;50.546;12.292;2023-11-19T10:35:37;3.53;;;0.88;;
36457;SDS011;22480;50.546;12.292;2023-11-19T10:38:19;4.30;;;1.55;;
36457;SDS011;22480;50.546;12.292;2023-11-19T10:40:45;3.45;;;1.80;;
36457;SDS011;22480;50.546;12.292;2023-11-19T10:43:12;3.92;;;1.63;;
36457;SDS011;22480;50.546;12.292;2023-11-19T10:45:38;3.42;;;0.95;;
36457;SDS011;22480;50.546;12.292;2023-11-19T10:48:04;2.90;;;0.93;;
36457;SDS011;22480;50.546;12.292;2023-11-19T10:50:41;4.43;;;1.00;;
36457;SDS011;22480;50.546;12.292;2023-11-19T10:53:09;3.25;;;0.85;;
36457;SDS011;22480;50.546;12.292;2023-11-19T10:55:38;6.10;;;1.40;;
36457;SDS011;22480;50.546;12.292;2023-11-19T10:58:05;3.63;;;1.40;;
36457;SDS011;22480;50.546;12.292;2023-11-19T11:00:39;11.70;;;3.05;;
36457;SDS011;22480;50.546;12.292;2023-11-19T11:05:43;4.15;;;1.25;;
36457;SDS011;22480;50.546;12.292;2023-11-19T11:08:15;3.03;;;1.27;;
36457;SDS011;22480;50.546;12.292;2023-11-19T11:10:43;5.95;;;1.70;;
36457;SDS011;22480;50.546;12.292;2023-11-19T11:13:16;3.20;;;1.80;;
36457;SDS011;22480;50.546;12.292;2023-11-19T11:15:43;6.18;;;1.98;;
36457;SDS011;22480;50.546;12.292;2023-11-19T11:18:12;7.07;;;2.60;;
36457;SDS011;22480;50.546;12.292;2023-11-19T11:20:38;4.93;;;2.72;;
36457;SDS011;22480;50.546;12.292;2023-11-19T11:37:30;6.72;;;2.55;;
36457;SDS011;22480;50.546;12.292;2023-11-19T11:40:01;4.60;;;2.05;;
36457;SDS011;22480;50.546;12.292;2023-11-19T11:42:35;2.30;;;1.17;;
36457;SDS011;22480;50.546;12.292;2023-11-19T11:45:05;3.33;;;1.27;;
36457;SDS011;22480;50.546;12.292;2023-11-19T11:50:13;2.58;;;0.98;;
36457;SDS011;22480;50.546;12.292;2023-11-19T11:55:28;4.70;;;1.52;;
36457;SDS011;22480;50.546;12.292;2023-11-19T11:57:59;5.95;;;1.80;;
36457;SDS011;22480;50.546;12.292;2023-11-19T12:00:32;4.03;;;1.17;;
36457;SDS011;22480;50.546;12.292;2023-11-19T12:03:02;10.50;;;3.50;;
36457;SDS011;22480;50.546;12.292;2023-11-19T12:05:29;6.50;;;1.52;;
36457;SDS011;22480;50.546;12.292;2023-11-19T12:07:56;8.80;;;3.30;;
36457;SDS011;22480;50.546;12.292;2023-11-19T12:10:25;6.90;;;1.60;;
36457;SDS011;22480;50.546;12.292;2023-11-19T12:12:56;6.80;;;1.67;;
36457;SDS011;22480;50.546;12.292;2023-11-19T12:15:23;4.10;;;1.80;;
36457;SDS011;22480;50.546;12.292;2023-11-19T12:17:52;3.15;;;1.05;;
36457;SDS011;22480;50.546;12.292;2023-11-19T12:20:18;5.45;;;1.80;;
36457;SDS011;22480;50.546;12.292;2023-11-19T12:25:15;10.80;;;5.88;;
36457;SDS011;22480;50.546;12.292;2023-11-19T12:27:42;4.88;;;2.95;;
36457;SDS011;22480;50.546;12.292;2023-11-19T12:30:09;7.03;;;1.60;;
36457;SDS011;22480;50.546;12.292;2023-11-19T12:32:42;2.50;;;0.90;;
36457;SDS011;22480;50.546;12.292;2023-11-19T12:35:09;8.27;;;1.98;;
36457;SDS011;22480;50.546;12.292;2023-11-19T12:37:42;3.77;;;1.67;;
36457;SDS011;22480;50.546;12.292;2023-11-19T12:42:53;15.07;;;6.15;;
36457;SDS011;22480;50.546;12.292;2023-11-19T12:45:19;10.05;;;6.03;;
36457;SDS011;22480;50.546;12.292;2023-11-19T12:47:47;6.53;;;2.63;;
36457;SDS011;22480;50.546;12.292;2023-11-19T12:50:14;4.80;;;1.25;;
36457;SDS011;22480;50.546;12.292;2023-11-19T12:52:42;7.53;;;1.70;;
36457;SDS011;22480;50.546;12.292;2023-11-19T12:55:27;5.25;;;2.00;;
36457;SDS011;22480;50.546;12.292;2023-11-19T12:57:54;5.72;;;1.63;;
36457;SDS011;22480;50.546;12.292;2023-11-19T13:00:21;15.85;;;6.45;;
36457;SDS011;22480;50.546;12.292;2023-11-19T13:02:52;9.02;;;2.50;;
36457;SDS011;22480;50.546;12.292;2023-11-19T13:10:25;4.65;;;1.60;;
36457;SDS011;22480;50.546;12.292;2023-11-19T13:13:02;5.57;;;1.45;;
36457;SDS011;22480;50.546;12.292;2023-11-19T13:15:34;8.80;;;2.40;;
36457;SDS011;22480;50.546;12.292;2023-11-19T13:18:01;3.95;;;1.83;;
36457;SDS011;22480;50.546;12.292;2023-11-19T13:20:28;8.45;;;1.77;;
36457;SDS011;22480;50.546;12.292;2023-11-19T13:22:57;5.43;;;1.60;;
36457;SDS011;22480;50.546;12.292;2023-11-19T13:25:24;3.45;;;1.10;;
36457;SDS011;22480;50.546;12.292;2023-11-19T13:27:50;5.28;;;2.15;;
36457;SDS011;22480;50.546;12.292;2023-11-19T13:30:16;7.68;;;2.38;;
36457;SDS011;22480;50.546;12.292;2023-11-19T13:32:43;6.32;;;2.90;;
36457;SDS011;22480;50.546;12.292;2023-11-19T13:35:11;2.95;;;1.05;;
36457;SDS011;22480;50.546;12.292;2023-11-19T13:37:38;6.93;;;1.70;;
36457;SDS011;22480;50.546;12.292;2023-11-19T13:40:04;10.98;;;4.50;;
36457;SDS011;22480;50.546;12.292;2023-11-19T13:42:32;6.38;;;1.83;;
36457;SDS011;22480;50.546;12.292;2023-11-19T13:44:58;5.65;;;1.90;;
36457;SDS011;22480;50.546;12.292;2023-11-19T13:47:23;4.97;;;1.48;;
36457;SDS011;22480;50.546;12.292;2023-11-19T13:49:49;7.25;;;1.35;;
36457;SDS011;22480;50.546;12.292;2023-11-19T13:52:15;3.25;;;1.20;;
36457;SDS011;22480;50.546;12.292;2023-11-19T13:54:41;3.95;;;1.13;;
36457;SDS011;22480;50.546;12.292;2023-11-19T13:57:07;7.60;;;2.22;;
36457;SDS011;22480;50.546;12.292;2023-11-19T13:59:33;4.40;;;1.38;;
36457;SDS011;22480;50.546;12.292;2023-11-19T14:01:58;5.85;;;1.70;;
36457;SDS011;22480;50.546;12.292;2023-11-19T14:04:24;8.25;;;1.67;;
36457;SDS011;22480;50.546;12.292;2023-11-19T14:06:50;4.45;;;1.60;;
36457;SDS011;22480;50.546;12.292;2023-11-19T14:09:16;8.13;;;1.35;;
36457;SDS011;22480;50.546;12.292;2023-11-19T14:11:42;6.78;;;2.75;;
36457;SDS011;22480;50.546;12.292;2023-11-19T14:14:09;6.22;;;3.20;;
36457;SDS011;22480;50.546;12.292;2023-11-19T14:16:34;4.85;;;1.33;;
36457;SDS011;22480;50.546;12.292;2023-11-19T14:19:01;7.15;;;2.20;;
36457;SDS011;22480;50.546;12.292;2023-11-19T14:21:26;5.95;;;1.77;;
36457;SDS011;22480;50.546;12.292;2023-11-19T14:23:52;4.25;;;1.33;;
36457;SDS011;22480;50.546;12.292;2023-11-19T14:26:18;6.35;;;1.48;;
36457;SDS011;22480;50.546;12.292;2023-11-19T14:28:44;7.93;;;1.42;;
36457;SDS011;22480;50.546;12.292;2023-11-19T14:31:10;6.43;;;1.40;;
36457;SDS011;22480;50.546;12.292;2023-11-19T14:33:35;6.40;;;1.27;;
36457;SDS011;22480;50.546;12.292;2023-11-19T14:36:03;10.68;;;4.85;;
36457;SDS011;22480;50.546;12.292;2023-11-19T14:38:29;11.55;;;3.92;;
36457;SDS011;22480;50.546;12.292;2023-11-19T14:40:55;7.88;;;2.70;;
36457;SDS011;22480;50.546;12.292;2023-11-19T14:43:21;14.32;;;7.13;;
36457;SDS011;22480;50.546;12.292;2023-11-19T14:45:47;11.15;;;4.32;;
36457;SDS011;22480;50.546;12.292;2023-11-19T14:48:13;9.27;;;3.30;;
36457;SDS011;22480;50.546;12.292;2023-11-19T14:50:39;8.77;;;2.15;;
36457;SDS011;22480;50.546;12.292;2023-11-19T14:53:05;10.73;;;3.05;;
36457;SDS011;22480;50.546;12.292;2023-11-19T14:55:31;7.20;;;1.75;;
36457;SDS011;22480;50.546;12.292;2023-11-19T14:57:57;9.50;;;2.75;;
36457;SDS011;22480;50.546;12.292;2023-11-19T15:00:23;10.57;;;3.28;;
36457;SDS011;22480;50.546;12.292;2023-11-19T15:02:48;8.65;;;2.78;;
36457;SDS011;22480;50.546;12.292;2023-11-19T15:05:14;12.13;;;3.35;;
36457;SDS011;22480;50.546;12.292;2023-11-19T15:07:40;8.38;;;2.63;;